PWSweather.com
Personal Weather Stations
Station Observations
WH6KOWX
Next To Mccormick Park, St Helens, OR 97051-2144

Next To Mccormick ParkSt Helens, OR 97051-2144

Lat: 45.85439, Lon: -122.81898

Elevation: 79

Station Type: DAVIS Vantage Pro2 PLUS (6163)

http://www.wh6ko.net/wxhome.html

Latest ConditionsUpdated 7:20:10 AM PDT Thursday, Jul 24, 2014
Currently Today's Max Today's Min Today's Average
Temperature 58.0°F14.4°C 58.0°F14.4°C 56.0°F13.3°C 57.1°F13.9°C
Dew Point 55.7°F13.2°C 56.0°F13.3°C 54.3°F12.4°C 55.1°F12.8°C
Winds Calm Calm 3.0 mph W4.8 kmh W - 0.3 mph 0.5 kmh
Wind Gusts 3.0 mph4.8 kmh 10.0 mph16.1 kmh - -
Humidity 92% 95% 91% 93%
Pressure 30.15 in1021.0 mb 30.15 in1021.0 mb 30.08 in1018.6 mb -
Hour Temp Dew Point Humidity Winds Wind Gusts Pressure Precip Precip Rate Daily Precip Total
07:20 AM 58.0°F14.4°C 55.7°F13.2°C 92% Calm Calm 3.0 mph4.8 kmh 30.15 in1021.0 mb 0.00 in0.0 mm 0.00 in/hr0.0 mm/hr 0.01 in0.3 mm
07:00 AM 58.0°F14.4°C 56.0°F13.3°C 93% Calm Calm -- 30.14 in1020.7 mb 0.00 in0.0 mm 0.00 in/hr0.0 mm/hr 0.01 in0.3 mm
06:40 AM 57.8°F14.3°C 55.2°F12.9°C 91% Calm Calm 7.0 mph11.3 kmh 30.13 in1020.3 mb 0.00 in0.0 mm 0.00 in/hr0.0 mm/hr 0.01 in0.3 mm
06:20 AM 57.8°F14.3°C 55.5°F13.1°C 92% 1.0 mph E1.6 kmh E 6.0 mph9.7 kmh 30.12 in1020.0 mb 0.01 in0.3 mm 0.00 in/hr0.0 mm/hr 0.01 in0.3 mm
06:00 AM 57.7°F14.3°C 55.1°F12.8°C 91% Calm Calm -- 30.12 in1020.0 mb 0.01 in0.3 mm 0.00 in/hr0.0 mm/hr 0.01 in0.3 mm
05:40 AM 57.7°F14.3°C 55.4°F13.0°C 92% Calm Calm 2.0 mph3.2 kmh 30.11 in1019.6 mb 0.01 in0.3 mm 0.00 in/hr0.0 mm/hr 0.01 in0.3 mm
05:20 AM 57.4°F14.1°C 55.1°F12.8°C 92% Calm Calm 10.0 mph16.1 kmh 30.11 in1019.6 mb 0.01 in0.3 mm 0.03 in/hr0.8 mm/hr 0.01 in0.3 mm
05:00 AM 57.1°F13.9°C 55.1°F12.8°C 93% Calm Calm 1.0 mph1.6 kmh 30.11 in1019.6 mb 0.00 in0.0 mm 0.00 in/hr0.0 mm/hr 0.00 in0.0 mm
04:40 AM 57.2°F14.0°C 54.9°F12.7°C 92% Calm Calm 5.0 mph8.0 kmh 30.11 in1019.6 mb 0.00 in0.0 mm 0.00 in/hr0.0 mm/hr 0.00 in0.0 mm
04:20 AM 57.0°F13.9°C 55.0°F12.8°C 93% Calm Calm 6.0 mph9.7 kmh 30.10 in1019.3 mb 0.00 in0.0 mm 0.00 in/hr0.0 mm/hr 0.00 in0.0 mm
04:00 AM 56.5°F13.6°C 54.5°F12.5°C 93% 1.0 mph SE1.6 kmh SE 2.0 mph3.2 kmh 30.09 in1019.0 mb 0.00 in0.0 mm 0.00 in/hr0.0 mm/hr 0.00 in0.0 mm
03:40 AM 56.0°F13.3°C 54.3°F12.4°C 94% Calm Calm 3.0 mph4.8 kmh 30.09 in1019.0 mb 0.00 in0.0 mm 0.00 in/hr0.0 mm/hr 0.00 in0.0 mm
03:20 AM 56.4°F13.6°C 54.4°F12.4°C 93% Calm Calm 4.0 mph6.4 kmh 30.09 in1019.0 mb 0.00 in0.0 mm 0.00 in/hr0.0 mm/hr 0.00 in0.0 mm
03:00 AM 56.6°F13.7°C 54.9°F12.7°C 94% Calm Calm -- 30.09 in1019.0 mb 0.00 in0.0 mm 0.00 in/hr0.0 mm/hr 0.00 in0.0 mm
02:40 AM 56.5°F13.6°C 54.8°F12.7°C 94% Calm Calm 5.0 mph8.0 kmh 30.09 in1019.0 mb 0.00 in0.0 mm 0.00 in/hr0.0 mm/hr 0.00 in0.0 mm
02:20 AM 56.4°F13.6°C 54.7°F12.6°C 94% 3.0 mph W4.8 kmh W 5.0 mph8.0 kmh 30.08 in1018.6 mb 0.00 in0.0 mm 0.00 in/hr0.0 mm/hr 0.00 in0.0 mm
02:00 AM 56.6°F13.7°C 55.2°F12.9°C 95% 1.0 mph NW1.6 kmh NW 2.0 mph3.2 kmh 30.08 in1018.6 mb 0.00 in0.0 mm 0.00 in/hr0.0 mm/hr 0.00 in0.0 mm
01:40 AM 56.7°F13.7°C 55.3°F12.9°C 95% Calm Calm 3.0 mph4.8 kmh 30.09 in1019.0 mb 0.00 in0.0 mm 0.00 in/hr0.0 mm/hr 0.00 in0.0 mm
01:20 AM 57.1°F13.9°C 55.4°F13.0°C 94% Calm Calm 2.0 mph3.2 kmh 30.09 in1019.0 mb 0.00 in0.0 mm 0.00 in/hr0.0 mm/hr 0.00 in0.0 mm
01:00 AM 57.5°F14.2°C 55.2°F12.9°C 92% Calm Calm -- 30.09 in1019.0 mb 0.00 in0.0 mm 0.00 in/hr0.0 mm/hr 0.00 in0.0 mm
12:40 AM 57.5°F14.2°C 55.5°F13.1°C 93% Calm Calm 1.0 mph1.6 kmh 30.10 in1019.3 mb 0.00 in0.0 mm 0.00 in/hr0.0 mm/hr 0.00 in0.0 mm
12:20 AM 57.4°F14.1°C 55.1°F12.8°C 92% Calm Calm 3.0 mph4.8 kmh 30.09 in1019.0 mb 0.00 in0.0 mm 0.00 in/hr0.0 mm/hr 0.00 in0.0 mm
12:00 AM 57.4°F14.1°C 55.4°F13.0°C 93% Calm Calm -- 30.09 in1019.0 mb 0.00 in0.0 mm 0.00 in/hr0.0 mm/hr 0.00 in0.0 mm